Авиационная погода в Гомеле

Регион: 
Погода METAR: 
UMGG 221800Z 25004MPS 3300 -SHSN OVC018CB M05/M06 Q1010 NOSIG
Время наблюдения
2022-01-22T18:00:00Z
Температура C
-5.0
Точка росы
-6.0
Направление ветра
250
Скорость ветра (узлы)
8
Метео видимость
2.05
Облачность
OVC
Нижняя граница облачности (футы)
1800
Явления погоды
-SHSN
Условия полета
IFR
Аэропорт подробнее: 
OVC – сплошная облачность;
-SHSN - слабый ливневой снег;